sensor_id;sensor_type;location;lat;lon;timestamp;P1;durP1;ratioP1;P2;durP2;ratioP2
78148;SDS011;67396;42.664;23.382;2023-07-13T00:01:43;6.70;;;4.72;;
78148;SDS011;67396;42.664;23.382;2023-07-13T00:04:08;9.98;;;4.90;;
78148;SDS011;67396;42.664;23.382;2023-07-13T00:06:34;7.65;;;5.18;;
78148;SDS011;67396;42.664;23.382;2023-07-13T00:09:00;14.48;;;6.07;;
78148;SDS011;67396;42.664;23.382;2023-07-13T00:11:26;7.95;;;4.70;;
78148;SDS011;67396;42.664;23.382;2023-07-13T00:13:52;10.02;;;4.82;;
78148;SDS011;67396;42.664;23.382;2023-07-13T00:16:18;7.32;;;5.43;;
78148;SDS011;67396;42.664;23.382;2023-07-13T00:18:44;9.18;;;5.32;;
78148;SDS011;67396;42.664;23.382;2023-07-13T00:21:11;10.77;;;5.45;;
78148;SDS011;67396;42.664;23.382;2023-07-13T00:23:38;6.07;;;4.43;;
78148;SDS011;67396;42.664;23.382;2023-07-13T00:26:06;6.72;;;4.80;;
78148;SDS011;67396;42.664;23.382;2023-07-13T00:28:32;7.43;;;4.70;;
78148;SDS011;67396;42.664;23.382;2023-07-13T00:30:59;7.43;;;4.90;;
78148;SDS011;67396;42.664;23.382;2023-07-13T00:33:24;6.95;;;4.40;;
78148;SDS011;67396;42.664;23.382;2023-07-13T00:35:53;12.68;;;5.97;;
78148;SDS011;67396;42.664;23.382;2023-07-13T00:38:19;17.45;;;5.78;;
78148;SDS011;67396;42.664;23.382;2023-07-13T00:40:45;13.20;;;5.60;;
78148;SDS011;67396;42.664;23.382;2023-07-13T00:43:17;9.20;;;5.10;;
78148;SDS011;67396;42.664;23.382;2023-07-13T00:48:12;10.48;;;5.05;;
78148;SDS011;67396;42.664;23.382;2023-07-13T00:50:43;10.10;;;5.38;;
78148;SDS011;67396;42.664;23.382;2023-07-13T00:53:11;15.05;;;5.70;;
78148;SDS011;67396;42.664;23.382;2023-07-13T00:55:38;9.43;;;6.05;;
78148;SDS011;67396;42.664;23.382;2023-07-13T00:58:04;8.80;;;5.07;;
78148;SDS011;67396;42.664;23.382;2023-07-13T01:00:31;8.48;;;5.20;;
78148;SDS011;67396;42.664;23.382;2023-07-13T01:02:59;13.48;;;5.75;;
78148;SDS011;67396;42.664;23.382;2023-07-13T01:05:29;8.00;;;5.20;;
78148;SDS011;67396;42.664;23.382;2023-07-13T01:07:57;13.85;;;5.32;;
78148;SDS011;67396;42.664;23.382;2023-07-13T01:10:24;17.75;;;6.03;;
78148;SDS011;67396;42.664;23.382;2023-07-13T01:12:50;7.78;;;5.40;;
78148;SDS011;67396;42.664;23.382;2023-07-13T01:15:40;8.18;;;4.93;;
78148;SDS011;67396;42.664;23.382;2023-07-13T01:20:36;12.73;;;5.63;;
78148;SDS011;67396;42.664;23.382;2023-07-13T01:23:09;8.23;;;4.68;;
78148;SDS011;67396;42.664;23.382;2023-07-13T01:25:38;9.57;;;5.10;;
78148;SDS011;67396;42.664;23.382;2023-07-13T01:28:03;8.68;;;5.28;;
78148;SDS011;67396;42.664;23.382;2023-07-13T01:30:30;9.43;;;5.85;;
78148;SDS011;67396;42.664;23.382;2023-07-13T01:32:57;7.90;;;5.75;;
78148;SDS011;67396;42.664;23.382;2023-07-13T01:35:23;7.07;;;4.90;;
78148;SDS011;67396;42.664;23.382;2023-07-13T01:37:50;8.10;;;5.50;;
78148;SDS011;67396;42.664;23.382;2023-07-13T01:40:16;6.78;;;4.18;;
78148;SDS011;67396;42.664;23.382;2023-07-13T01:42:41;10.27;;;5.07;;
78148;SDS011;67396;42.664;23.382;2023-07-13T01:45:07;9.73;;;5.78;;
78148;SDS011;67396;42.664;23.382;2023-07-13T01:47:33;9.35;;;5.57;;
78148;SDS011;67396;42.664;23.382;2023-07-13T01:49:58;11.20;;;6.65;;
78148;SDS011;67396;42.664;23.382;2023-07-13T01:52:23;12.18;;;6.28;;
78148;SDS011;67396;42.664;23.382;2023-07-13T01:54:49;9.75;;;5.18;;
78148;SDS011;67396;42.664;23.382;2023-07-13T01:57:14;11.95;;;6.20;;
78148;SDS011;67396;42.664;23.382;2023-07-13T01:59:40;9.77;;;5.53;;
78148;SDS011;67396;42.664;23.382;2023-07-13T02:02:05;12.30;;;5.70;;
78148;SDS011;67396;42.664;23.382;2023-07-13T02:04:31;8.63;;;5.65;;
78148;SDS011;67396;42.664;23.382;2023-07-13T02:06:56;10.07;;;5.95;;
78148;SDS011;67396;42.664;23.382;2023-07-13T02:09:22;9.02;;;5.35;;
78148;SDS011;67396;42.664;23.382;2023-07-13T02:11:48;10.75;;;5.40;;
78148;SDS011;67396;42.664;23.382;2023-07-13T02:14:14;10.68;;;6.78;;
78148;SDS011;67396;42.664;23.382;2023-07-13T02:16:40;11.25;;;6.22;;
78148;SDS011;67396;42.664;23.382;2023-07-13T02:19:06;9.15;;;6.57;;
78148;SDS011;67396;42.664;23.382;2023-07-13T02:21:32;11.85;;;6.28;;
78148;SDS011;67396;42.664;23.382;2023-07-13T02:23:58;8.93;;;6.32;;
78148;SDS011;67396;42.664;23.382;2023-07-13T02:26:25;8.93;;;6.20;;
78148;SDS011;67396;42.664;23.382;2023-07-13T02:28:51;10.32;;;5.68;;
78148;SDS011;67396;42.664;23.382;2023-07-13T02:31:17;26.58;;;8.00;;
78148;SDS011;67396;42.664;23.382;2023-07-13T02:33:43;9.98;;;6.40;;
78148;SDS011;67396;42.664;23.382;2023-07-13T02:36:09;13.35;;;6.55;;
78148;SDS011;67396;42.664;23.382;2023-07-13T02:38:35;7.78;;;5.78;;
78148;SDS011;67396;42.664;23.382;2023-07-13T02:41:01;14.50;;;7.05;;
78148;SDS011;67396;42.664;23.382;2023-07-13T02:43:28;9.18;;;5.88;;
78148;SDS011;67396;42.664;23.382;2023-07-13T02:45:54;11.40;;;6.45;;
78148;SDS011;67396;42.664;23.382;2023-07-13T02:48:23;9.15;;;6.13;;
78148;SDS011;67396;42.664;23.382;2023-07-13T02:50:49;12.98;;;6.60;;
78148;SDS011;67396;42.664;23.382;2023-07-13T02:53:19;13.70;;;6.60;;
78148;SDS011;67396;42.664;23.382;2023-07-13T02:55:44;10.18;;;6.25;;
78148;SDS011;67396;42.664;23.382;2023-07-13T02:58:12;13.07;;;6.40;;
78148;SDS011;67396;42.664;23.382;2023-07-13T03:00:41;10.48;;;5.95;;
78148;SDS011;67396;42.664;23.382;2023-07-13T03:03:07;10.88;;;6.15;;
78148;SDS011;67396;42.664;23.382;2023-07-13T03:05:33;9.18;;;6.30;;
78148;SDS011;67396;42.664;23.382;2023-07-13T03:07:58;8.95;;;5.32;;
78148;SDS011;67396;42.664;23.382;2023-07-13T03:10:23;10.05;;;6.13;;
78148;SDS011;67396;42.664;23.382;2023-07-13T03:12:49;13.95;;;6.20;;
78148;SDS011;67396;42.664;23.382;2023-07-13T03:15:14;10.60;;;5.72;;
78148;SDS011;67396;42.664;23.382;2023-07-13T03:17:40;9.52;;;6.40;;
78148;SDS011;67396;42.664;23.382;2023-07-13T03:20:05;8.80;;;6.45;;
78148;SDS011;67396;42.664;23.382;2023-07-13T03:22:32;9.45;;;6.30;;
78148;SDS011;67396;42.664;23.382;2023-07-13T03:24:57;8.30;;;5.72;;
78148;SDS011;67396;42.664;23.382;2023-07-13T03:27:23;9.52;;;6.00;;
78148;SDS011;67396;42.664;23.382;2023-07-13T03:29:48;10.88;;;6.15;;
78148;SDS011;67396;42.664;23.382;2023-07-13T03:32:14;7.57;;;5.53;;
78148;SDS011;67396;42.664;23.382;2023-07-13T03:34:39;9.98;;;6.32;;
78148;SDS011;67396;42.664;23.382;2023-07-13T03:37:05;9.73;;;6.60;;
78148;SDS011;67396;42.664;23.382;2023-07-13T03:39:30;10.27;;;6.05;;
78148;SDS011;67396;42.664;23.382;2023-07-13T03:41:56;13.27;;;7.60;;
78148;SDS011;67396;42.664;23.382;2023-07-13T03:44:21;9.95;;;6.75;;
78148;SDS011;67396;42.664;23.382;2023-07-13T03:46:46;24.30;;;13.50;;
78148;SDS011;67396;42.664;23.382;2023-07-13T03:49:12;19.00;;;10.75;;
78148;SDS011;67396;42.664;23.382;2023-07-13T03:51:37;20.95;;;11.23;;
78148;SDS011;67396;42.664;23.382;2023-07-13T03:54:03;37.00;;;17.75;;
78148;SDS011;67396;42.664;23.382;2023-07-13T03:56:29;29.90;;;16.50;;
78148;SDS011;67396;42.664;23.382;2023-07-13T03:58:55;40.90;;;23.45;;
78148;SDS011;67396;42.664;23.382;2023-07-13T04:01:21;17.95;;;11.23;;
78148;SDS011;67396;42.664;23.382;2023-07-13T04:03:49;20.45;;;11.13;;
78148;SDS011;67396;42.664;23.382;2023-07-13T04:06:19;24.23;;;11.88;;
78148;SDS011;67396;42.664;23.382;2023-07-13T04:08:51;21.02;;;11.75;;
78148;SDS011;67396;42.664;23.382;2023-07-13T04:11:19;18.17;;;8.98;;
78148;SDS011;67396;42.664;23.382;2023-07-13T04:13:46;14.68;;;8.77;;
78148;SDS011;67396;42.664;23.382;2023-07-13T04:16:13;20.58;;;9.48;;
78148;SDS011;67396;42.664;23.382;2023-07-13T04:18:39;15.32;;;9.02;;
78148;SDS011;67396;42.664;23.382;2023-07-13T04:21:06;17.35;;;10.50;;
78148;SDS011;67396;42.664;23.382;2023-07-13T04:23:31;20.00;;;12.00;;
78148;SDS011;67396;42.664;23.382;2023-07-13T04:25:57;9.73;;;6.68;;
78148;SDS011;67396;42.664;23.382;2023-07-13T04:28:23;16.15;;;8.23;;
78148;SDS011;67396;42.664;23.382;2023-07-13T04:30:50;10.52;;;7.25;;
78148;SDS011;67396;42.664;23.382;2023-07-13T04:33:16;11.40;;;7.30;;
78148;SDS011;67396;42.664;23.382;2023-07-13T04:35:42;13.07;;;7.75;;
78148;SDS011;67396;42.664;23.382;2023-07-13T04:38:08;14.70;;;7.57;;
78148;SDS011;67396;42.664;23.382;2023-07-13T04:40:36;11.02;;;7.45;;
78148;SDS011;67396;42.664;23.382;2023-07-13T04:43:02;15.10;;;9.55;;
78148;SDS011;67396;42.664;23.382;2023-07-13T04:45:27;14.05;;;7.82;;
78148;SDS011;67396;42.664;23.382;2023-07-13T04:47:52;16.42;;;8.32;;
78148;SDS011;67396;42.664;23.382;2023-07-13T04:50:18;14.35;;;7.30;;
78148;SDS011;67396;42.664;23.382;2023-07-13T04:52:51;13.27;;;7.45;;
78148;SDS011;67396;42.664;23.382;2023-07-13T04:55:17;11.45;;;7.18;;
78148;SDS011;67396;42.664;23.382;2023-07-13T04:57:44;17.48;;;8.52;;
78148;SDS011;67396;42.664;23.382;2023-07-13T05:00:10;13.27;;;7.75;;
78148;SDS011;67396;42.664;23.382;2023-07-13T05:02:37;32.53;;;19.15;;
78148;SDS011;67396;42.664;23.382;2023-07-13T05:05:03;24.58;;;12.43;;
78148;SDS011;67396;42.664;23.382;2023-07-13T05:07:29;42.15;;;22.35;;
78148;SDS011;67396;42.664;23.382;2023-07-13T05:09:54;45.90;;;23.73;;
78148;SDS011;67396;42.664;23.382;2023-07-13T05:12:20;23.63;;;12.77;;
78148;SDS011;67396;42.664;23.382;2023-07-13T05:14:45;28.30;;;11.60;;
78148;SDS011;67396;42.664;23.382;2023-07-13T05:17:11;25.83;;;13.55;;
78148;SDS011;67396;42.664;23.382;2023-07-13T05:19:36;17.85;;;10.70;;
78148;SDS011;67396;42.664;23.382;2023-07-13T05:22:02;35.20;;;11.60;;
78148;SDS011;67396;42.664;23.382;2023-07-13T05:24:29;17.70;;;8.65;;
78148;SDS011;67396;42.664;23.382;2023-07-13T05:26:54;20.38;;;12.57;;
78148;SDS011;67396;42.664;23.382;2023-07-13T05:29:20;23.20;;;12.07;;
78148;SDS011;67396;42.664;23.382;2023-07-13T05:31:46;29.27;;;14.50;;
78148;SDS011;67396;42.664;23.382;2023-07-13T05:34:12;27.38;;;16.83;;
78148;SDS011;67396;42.664;23.382;2023-07-13T05:36:38;18.40;;;10.95;;
78148;SDS011;67396;42.664;23.382;2023-07-13T05:39:04;15.82;;;10.25;;
78148;SDS011;67396;42.664;23.382;2023-07-13T05:41:29;19.17;;;9.45;;
78148;SDS011;67396;42.664;23.382;2023-07-13T05:43:54;19.70;;;10.68;;
78148;SDS011;67396;42.664;23.382;2023-07-13T05:46:20;18.63;;;8.73;;
78148;SDS011;67396;42.664;23.382;2023-07-13T05:48:45;17.00;;;9.00;;
78148;SDS011;67396;42.664;23.382;2023-07-13T05:51:11;15.75;;;9.00;;
78148;SDS011;67396;42.664;23.382;2023-07-13T05:53:36;23.65;;;9.20;;
78148;SDS011;67396;42.664;23.382;2023-07-13T05:56:01;13.25;;;7.43;;
78148;SDS011;67396;42.664;23.382;2023-07-13T05:58:27;11.57;;;7.65;;
78148;SDS011;67396;42.664;23.382;2023-07-13T06:01:03;15.43;;;7.85;;
78148;SDS011;67396;42.664;23.382;2023-07-13T06:03:38;13.98;;;7.53;;
78148;SDS011;67396;42.664;23.382;2023-07-13T06:06:04;15.82;;;8.02;;
78148;SDS011;67396;42.664;23.382;2023-07-13T06:08:31;12.85;;;7.85;;
78148;SDS011;67396;42.664;23.382;2023-07-13T06:11:06;13.50;;;8.73;;
78148;SDS011;67396;42.664;23.382;2023-07-13T06:13:39;20.55;;;8.60;;
78148;SDS011;67396;42.664;23.382;2023-07-13T06:16:05;13.82;;;8.10;;
78148;SDS011;67396;42.664;23.382;2023-07-13T06:18:32;15.38;;;9.15;;
78148;SDS011;67396;42.664;23.382;2023-07-13T06:20:58;13.90;;;8.65;;
78148;SDS011;67396;42.664;23.382;2023-07-13T06:23:24;13.90;;;8.60;;
78148;SDS011;67396;42.664;23.382;2023-07-13T06:25:50;15.25;;;8.75;;
78148;SDS011;67396;42.664;23.382;2023-07-13T06:28:16;22.20;;;9.40;;
78148;SDS011;67396;42.664;23.382;2023-07-13T06:30:42;12.88;;;8.02;;
78148;SDS011;67396;42.664;23.382;2023-07-13T06:33:07;18.17;;;8.60;;
78148;SDS011;67396;42.664;23.382;2023-07-13T06:35:33;16.98;;;8.80;;
78148;SDS011;67396;42.664;23.382;2023-07-13T06:37:58;11.95;;;8.40;;
78148;SDS011;67396;42.664;23.382;2023-07-13T06:40:25;16.45;;;8.60;;
78148;SDS011;67396;42.664;23.382;2023-07-13T06:42:53;17.38;;;9.13;;
78148;SDS011;67396;42.664;23.382;2023-07-13T06:45:19;13.30;;;9.63;;
78148;SDS011;67396;42.664;23.382;2023-07-13T06:47:44;16.40;;;9.73;;
78148;SDS011;67396;42.664;23.382;2023-07-13T06:50:09;14.65;;;8.90;;
78148;SDS011;67396;42.664;23.382;2023-07-13T06:52:35;13.80;;;8.30;;
78148;SDS011;67396;42.664;23.382;2023-07-13T06:55:00;16.13;;;9.65;;
78148;SDS011;67396;42.664;23.382;2023-07-13T06:57:26;17.77;;;9.07;;
78148;SDS011;67396;42.664;23.382;2023-07-13T06:59:52;21.33;;;10.07;;
78148;SDS011;67396;42.664;23.382;2023-07-13T07:02:17;19.35;;;10.07;;
78148;SDS011;67396;42.664;23.382;2023-07-13T07:04:43;10.32;;;7.72;;
78148;SDS011;67396;42.664;23.382;2023-07-13T07:07:08;16.95;;;9.57;;
78148;SDS011;67396;42.664;23.382;2023-07-13T07:09:34;20.30;;;8.68;;
78148;SDS011;67396;42.664;23.382;2023-07-13T07:11:59;16.77;;;8.77;;
78148;SDS011;67396;42.664;23.382;2023-07-13T07:14:25;12.65;;;8.20;;
78148;SDS011;67396;42.664;23.382;2023-07-13T07:16:50;13.82;;;9.10;;
78148;SDS011;67396;42.664;23.382;2023-07-13T07:19:16;14.25;;;8.73;;
78148;SDS011;67396;42.664;23.382;2023-07-13T07:21:41;19.35;;;9.93;;
78148;SDS011;67396;42.664;23.382;2023-07-13T07:24:06;14.80;;;8.00;;
78148;SDS011;67396;42.664;23.382;2023-07-13T07:26:32;12.80;;;8.90;;
78148;SDS011;67396;42.664;23.382;2023-07-13T07:28:58;14.38;;;8.23;;
78148;SDS011;67396;42.664;23.382;2023-07-13T07:31:24;13.50;;;8.38;;
78148;SDS011;67396;42.664;23.382;2023-07-13T07:33:49;18.38;;;8.63;;
78148;SDS011;67396;42.664;23.382;2023-07-13T07:36:15;15.10;;;9.88;;
78148;SDS011;67396;42.664;23.382;2023-07-13T07:38:41;24.45;;;9.27;;
78148;SDS011;67396;42.664;23.382;2023-07-13T07:41:07;19.98;;;9.38;;
78148;SDS011;67396;42.664;23.382;2023-07-13T07:43:32;13.48;;;8.73;;
78148;SDS011;67396;42.664;23.382;2023-07-13T07:45:57;22.98;;;9.60;;
78148;SDS011;67396;42.664;23.382;2023-07-13T07:48:23;17.33;;;9.35;;
78148;SDS011;67396;42.664;23.382;2023-07-13T07:50:48;18.05;;;11.00;;
78148;SDS011;67396;42.664;23.382;2023-07-13T07:53:14;20.48;;;11.45;;
78148;SDS011;67396;42.664;23.382;2023-07-13T07:55:40;25.25;;;10.43;;
78148;SDS011;67396;42.664;23.382;2023-07-13T07:58:06;27.90;;;11.82;;
78148;SDS011;67396;42.664;23.382;2023-07-13T08:00:32;16.27;;;10.38;;
78148;SDS011;67396;42.664;23.382;2023-07-13T08:02:57;18.77;;;9.98;;
78148;SDS011;67396;42.664;23.382;2023-07-13T08:05:23;21.40;;;10.80;;
78148;SDS011;67396;42.664;23.382;2023-07-13T08:07:49;17.98;;;9.80;;
78148;SDS011;67396;42.664;23.382;2023-07-13T08:10:15;22.50;;;9.90;;
78148;SDS011;67396;42.664;23.382;2023-07-13T08:12:40;19.30;;;10.30;;
78148;SDS011;67396;42.664;23.382;2023-07-13T08:15:06;16.80;;;10.07;;
78148;SDS011;67396;42.664;23.382;2023-07-13T08:17:35;26.42;;;10.05;;
78148;SDS011;67396;42.664;23.382;2023-07-13T08:20:00;16.00;;;8.82;;
78148;SDS011;67396;42.664;23.382;2023-07-13T08:22:26;14.30;;;9.15;;
78148;SDS011;67396;42.664;23.382;2023-07-13T08:24:52;21.75;;;10.52;;
78148;SDS011;67396;42.664;23.382;2023-07-13T08:27:21;11.65;;;9.30;;
78148;SDS011;67396;42.664;23.382;2023-07-13T08:29:48;17.55;;;9.20;;
78148;SDS011;67396;42.664;23.382;2023-07-13T08:32:14;16.20;;;9.48;;
78148;SDS011;67396;42.664;23.382;2023-07-13T08:34:39;16.15;;;9.05;;
78148;SDS011;67396;42.664;23.382;2023-07-13T08:37:05;18.05;;;9.65;;
78148;SDS011;67396;42.664;23.382;2023-07-13T08:39:31;15.23;;;8.75;;
78148;SDS011;67396;42.664;23.382;2023-07-13T08:42:05;19.08;;;9.65;;
78148;SDS011;67396;42.664;23.382;2023-07-13T08:44:38;16.42;;;9.00;;
78148;SDS011;67396;42.664;23.382;2023-07-13T08:47:17;14.43;;;8.98;;
78148;SDS011;67396;42.664;23.382;2023-07-13T08:49:47;20.20;;;9.80;;
78148;SDS011;67396;42.664;23.382;2023-07-13T08:55:03;23.60;;;9.80;;
78148;SDS011;67396;42.664;23.382;2023-07-13T08:58:05;19.50;;;10.20;;
78148;SDS011;67396;42.664;23.382;2023-07-13T09:00:44;17.55;;;10.13;;
78148;SDS011;67396;42.664;23.382;2023-07-13T09:03:22;19.08;;;9.02;;
78148;SDS011;67396;42.664;23.382;2023-07-13T09:05:54;19.50;;;9.95;;
78148;SDS011;67396;42.664;23.382;2023-07-13T09:08:30;15.52;;;9.25;;
78148;SDS011;67396;42.664;23.382;2023-07-13T09:16:04;18.92;;;10.55;;
78148;SDS011;67396;42.664;23.382;2023-07-13T09:21:17;19.65;;;9.52;;
78148;SDS011;67396;42.664;23.382;2023-07-13T09:23:49;18.73;;;10.50;;
78148;SDS011;67396;42.664;23.382;2023-07-13T09:26:22;18.10;;;9.60;;
78148;SDS011;67396;42.664;23.382;2023-07-13T09:28:53;21.40;;;10.10;;
78148;SDS011;67396;42.664;23.382;2023-07-13T09:31:24;19.92;;;9.77;;
78148;SDS011;67396;42.664;23.382;2023-07-13T09:33:56;15.57;;;9.63;;
78148;SDS011;67396;42.664;23.382;2023-07-13T09:36:25;11.13;;;8.38;;
78148;SDS011;67396;42.664;23.382;2023-07-13T09:39:27;18.88;;;11.43;;
78148;SDS011;67396;42.664;23.382;2023-07-13T09:44:37;14.35;;;9.23;;
78148;SDS011;67396;42.664;23.382;2023-07-13T09:47:15;21.52;;;9.85;;
78148;SDS011;67396;42.664;23.382;2023-07-13T09:49:41;16.85;;;9.02;;
78148;SDS011;67396;42.664;23.382;2023-07-13T09:52:10;17.05;;;9.50;;
78148;SDS011;67396;42.664;23.382;2023-07-13T09:57:38;15.50;;;9.63;;
78148;SDS011;67396;42.664;23.382;2023-07-13T09:59:56;15.73;;;10.82;;
78148;SDS011;67396;42.664;23.382;2023-07-13T10:02:33;13.52;;;9.68;;
78148;SDS011;67396;42.664;23.382;2023-07-13T10:05:07;14.10;;;9.07;;
78148;SDS011;67396;42.664;23.382;2023-07-13T10:07:39;17.50;;;9.50;;
78148;SDS011;67396;42.664;23.382;2023-07-13T10:10:16;15.82;;;10.52;;
78148;SDS011;67396;42.664;23.382;2023-07-13T10:12:44;16.48;;;10.13;;
78148;SDS011;67396;42.664;23.382;2023-07-13T10:15:18;17.73;;;11.18;;
78148;SDS011;67396;42.664;23.382;2023-07-13T10:17:46;18.48;;;10.23;;
78148;SDS011;67396;42.664;23.382;2023-07-13T10:20:12;14.88;;;8.75;;
78148;SDS011;67396;42.664;23.382;2023-07-13T10:22:42;24.25;;;9.70;;
78148;SDS011;67396;42.664;23.382;2023-07-13T10:27:47;15.27;;;9.68;;
78148;SDS011;67396;42.664;23.382;2023-07-13T10:30:19;18.65;;;9.85;;
78148;SDS011;67396;42.664;23.382;2023-07-13T10:32:48;14.77;;;9.63;;
78148;SDS011;67396;42.664;23.382;2023-07-13T10:35:16;15.18;;;10.68;;
78148;SDS011;67396;42.664;23.382;2023-07-13T10:38:07;21.48;;;11.38;;
78148;SDS011;67396;42.664;23.382;2023-07-13T10:40:40;18.85;;;11.07;;
78148;SDS011;67396;42.664;23.382;2023-07-13T10:43:18;19.75;;;10.60;;
78148;SDS011;67396;42.664;23.382;2023-07-13T10:45:49;18.73;;;10.27;;
78148;SDS011;67396;42.664;23.382;2023-07-13T10:48:16;18.08;;;10.73;;
78148;SDS011;67396;42.664;23.382;2023-07-13T10:50:43;17.23;;;10.23;;
78148;SDS011;67396;42.664;23.382;2023-07-13T10:56:00;18.13;;;7.65;;
78148;SDS011;67396;42.664;23.382;2023-07-13T10:59:00;13.60;;;6.90;;
78148;SDS011;67396;42.664;23.382;2023-07-13T11:01:50;11.63;;;6.22;;
78148;SDS011;67396;42.664;23.382;2023-07-13T11:04:21;10.15;;;6.38;;
78148;SDS011;67396;42.664;23.382;2023-07-13T11:06:50;14.20;;;6.95;;
78148;SDS011;67396;42.664;23.382;2023-07-13T11:09:40;14.65;;;5.75;;
78148;SDS011;67396;42.664;23.382;2023-07-13T11:14:44;12.57;;;5.82;;
78148;SDS011;67396;42.664;23.382;2023-07-13T11:20:31;12.90;;;5.25;;
78148;SDS011;67396;42.664;23.382;2023-07-13T11:23:09;12.55;;;5.97;;
78148;SDS011;67396;42.664;23.382;2023-07-13T11:25:44;10.60;;;5.90;;
78148;SDS011;67396;42.664;23.382;2023-07-13T11:30:36;14.80;;;5.50;;
78148;SDS011;67396;42.664;23.382;2023-07-13T11:33:24;11.80;;;5.28;;
78148;SDS011;67396;42.664;23.382;2023-07-13T11:36:03;17.58;;;6.80;;
78148;SDS011;67396;42.664;23.382;2023-07-13T11:41:10;10.60;;;5.93;;
78148;SDS011;67396;42.664;23.382;2023-07-13T11:43:53;16.73;;;5.93;;
78148;SDS011;67396;42.664;23.382;2023-07-13T11:46:20;13.45;;;6.80;;
78148;SDS011;67396;42.664;23.382;2023-07-13T11:48:51;10.88;;;5.32;;
78148;SDS011;67396;42.664;23.382;2023-07-13T11:51:21;11.23;;;6.57;;
78148;SDS011;67396;42.664;23.382;2023-07-13T11:56:15;11.18;;;6.43;;
78148;SDS011;67396;42.664;23.382;2023-07-13T11:58:41;13.40;;;5.70;;
78148;SDS011;67396;42.664;23.382;2023-07-13T12:01:10;12.70;;;6.40;;
78148;SDS011;67396;42.664;23.382;2023-07-13T12:03:48;12.35;;;5.88;;
78148;SDS011;67396;42.664;23.382;2023-07-13T12:06:33;12.40;;;6.30;;
78148;SDS011;67396;42.664;23.382;2023-07-13T12:09:12;12.13;;;6.88;;
78148;SDS011;67396;42.664;23.382;2023-07-13T12:11:41;12.98;;;6.30;;
78148;SDS011;67396;42.664;23.382;2023-07-13T12:14:12;14.68;;;6.63;;
78148;SDS011;67396;42.664;23.382;2023-07-13T12:16:40;12.05;;;5.78;;
78148;SDS011;67396;42.664;23.382;2023-07-13T12:19:09;17.75;;;7.28;;
78148;SDS011;67396;42.664;23.382;2023-07-13T12:21:42;13.77;;;6.40;;
78148;SDS011;67396;42.664;23.382;2023-07-13T12:24:15;10.57;;;5.97;;
78148;SDS011;67396;42.664;23.382;2023-07-13T12:26:42;14.07;;;7.25;;
78148;SDS011;67396;42.664;23.382;2023-07-13T12:29:11;14.90;;;7.13;;
78148;SDS011;67396;42.664;23.382;2023-07-13T12:31:42;14.15;;;6.57;;
78148;SDS011;67396;42.664;23.382;2023-07-13T12:34:17;15.60;;;6.20;;
78148;SDS011;67396;42.664;23.382;2023-07-13T12:39:24;11.20;;;5.43;;
78148;SDS011;67396;42.664;23.382;2023-07-13T12:42:09;12.23;;;5.78;;
78148;SDS011;67396;42.664;23.382;2023-07-13T12:44:46;12.23;;;6.95;;
78148;SDS011;67396;42.664;23.382;2023-07-13T12:47:12;10.90;;;6.40;;
78148;SDS011;67396;42.664;23.382;2023-07-13T12:49:44;11.07;;;6.47;;
78148;SDS011;67396;42.664;23.382;2023-07-13T12:52:20;11.23;;;6.07;;
78148;SDS011;67396;42.664;23.382;2023-07-13T12:57:38;8.60;;;5.43;;
78148;SDS011;67396;42.664;23.382;2023-07-13T13:00:06;12.80;;;7.18;;
78148;SDS011;67396;42.664;23.382;2023-07-13T13:02:51;19.98;;;8.13;;
78148;SDS011;67396;42.664;23.382;2023-07-13T13:05:22;17.45;;;7.70;;
78148;SDS011;67396;42.664;23.382;2023-07-13T13:07:50;16.70;;;7.93;;
78148;SDS011;67396;42.664;23.382;2023-07-13T13:10:16;20.55;;;8.60;;
78148;SDS011;67396;42.664;23.382;2023-07-13T13:12:41;17.20;;;7.53;;
78148;SDS011;67396;42.664;23.382;2023-07-13T13:15:10;15.55;;;7.65;;
78148;SDS011;67396;42.664;23.382;2023-07-13T13:17:36;17.70;;;8.27;;
78148;SDS011;67396;42.664;23.382;2023-07-13T13:20:05;17.83;;;7.97;;
78148;SDS011;67396;42.664;23.382;2023-07-13T13:22:41;17.92;;;8.35;;
78148;SDS011;67396;42.664;23.382;2023-07-13T13:25:09;15.88;;;8.65;;
78148;SDS011;67396;42.664;23.382;2023-07-13T13:27:35;13.38;;;8.70;;
78148;SDS011;67396;42.664;23.382;2023-07-13T13:30:02;18.70;;;9.20;;
78148;SDS011;67396;42.664;23.382;2023-07-13T13:32:28;13.88;;;7.40;;
78148;SDS011;67396;42.664;23.382;2023-07-13T13:34:53;16.35;;;8.02;;
78148;SDS011;67396;42.664;23.382;2023-07-13T13:37:20;19.65;;;9.05;;
78148;SDS011;67396;42.664;23.382;2023-07-13T13:39:47;18.50;;;9.27;;
78148;SDS011;67396;42.664;23.382;2023-07-13T13:42:14;19.08;;;8.02;;
78148;SDS011;67396;42.664;23.382;2023-07-13T13:44:39;14.75;;;8.15;;
78148;SDS011;67396;42.664;23.382;2023-07-13T13:49:57;16.02;;;8.15;;
78148;SDS011;67396;42.664;23.382;2023-07-13T13:52:23;12.88;;;7.38;;
78148;SDS011;67396;42.664;23.382;2023-07-13T13:54:49;13.85;;;7.82;;
78148;SDS011;67396;42.664;23.382;2023-07-13T13:57:15;12.40;;;7.93;;
78148;SDS011;67396;42.664;23.382;2023-07-13T13:59:40;18.65;;;8.27;;
78148;SDS011;67396;42.664;23.382;2023-07-13T14:04:58;12.60;;;7.70;;
78148;SDS011;67396;42.664;23.382;2023-07-13T14:07:25;18.45;;;8.10;;
78148;SDS011;67396;42.664;23.382;2023-07-13T14:09:52;18.88;;;8.35;;
78148;SDS011;67396;42.664;23.382;2023-07-13T14:12:20;17.00;;;7.18;;
78148;SDS011;67396;42.664;23.382;2023-07-13T14:14:46;15.18;;;7.57;;
78148;SDS011;67396;42.664;23.382;2023-07-13T14:17:21;16.67;;;8.02;;
78148;SDS011;67396;42.664;23.382;2023-07-13T14:19:49;12.73;;;7.32;;
78148;SDS011;67396;42.664;23.382;2023-07-13T14:22:16;18.05;;;7.20;;
78148;SDS011;67396;42.664;23.382;2023-07-13T14:24:43;13.20;;;7.85;;
78148;SDS011;67396;42.664;23.382;2023-07-13T14:27:12;15.18;;;7.82;;
78148;SDS011;67396;42.664;23.382;2023-07-13T14:29:39;13.35;;;6.70;;
78148;SDS011;67396;42.664;23.382;2023-07-13T14:32:08;9.55;;;7.32;;
78148;SDS011;67396;42.664;23.382;2023-07-13T14:34:36;14.57;;;7.75;;
78148;SDS011;67396;42.664;23.382;2023-07-13T14:37:01;16.33;;;7.03;;
78148;SDS011;67396;42.664;23.382;2023-07-13T14:39:29;14.77;;;7.45;;
78148;SDS011;67396;42.664;23.382;2023-07-13T14:41:55;15.13;;;7.78;;
78148;SDS011;67396;42.664;23.382;2023-07-13T14:44:24;20.17;;;8.35;;
78148;SDS011;67396;42.664;23.382;2023-07-13T14:46:54;10.88;;;6.95;;
78148;SDS011;67396;42.664;23.382;2023-07-13T14:49:40;17.05;;;6.97;;
78148;SDS011;67396;42.664;23.382;2023-07-13T14:52:18;17.60;;;7.32;;
78148;SDS011;67396;42.664;23.382;2023-07-13T14:54:45;14.70;;;7.35;;
78148;SDS011;67396;42.664;23.382;2023-07-13T14:57:18;13.05;;;8.15;;
78148;SDS011;67396;42.664;23.382;2023-07-13T14:59:45;14.32;;;7.68;;
78148;SDS011;67396;42.664;23.382;2023-07-13T15:02:15;16.17;;;6.95;;
78148;SDS011;67396;42.664;23.382;2023-07-13T15:04:44;14.13;;;7.55;;
78148;SDS011;67396;42.664;23.382;2023-07-13T15:07:10;16.27;;;6.90;;
78148;SDS011;67396;42.664;23.382;2023-07-13T15:09:38;19.83;;;7.25;;
78148;SDS011;67396;42.664;23.382;2023-07-13T15:12:07;13.40;;;7.40;;
78148;SDS011;67396;42.664;23.382;2023-07-13T15:14:33;13.70;;;7.10;;
78148;SDS011;67396;42.664;23.382;2023-07-13T15:16:58;18.58;;;6.75;;
78148;SDS011;67396;42.664;23.382;2023-07-13T15:19:25;13.98;;;6.40;;